• Join FlightAware (Why Join?)
  • Login
  • US Flag 
01:16AM EDT


 

Airport Tracker/Info


-or-


 

Live Flight TrackerFlight Track Log ✈ SWA554 ✈ 12-Apr-2013 ✈ KBWI - KMHT

Flight Track Log - Related Links

Times and Time Zones

All times are in EDT time to prevent confusion due to time zone crossing. See the SWA554 flight status page for this flight to view local times or setup timezone preferences in your user account.

Time Position Orientation Groundspeed Altitude Reporting Facility
EDT Latitude Longitude Course Direction KTS MPH feet Rate Location/Type
05:22PM 39.1500 -76.6500 131° Southeast 163 188 1,600  Level Potomac TRACON
05:23PM 39.1167 -76.6000 131° Southeast 219 252 3,600 1,980 Climbing Potomac TRACON
05:25PM 39.1250 -76.4317 86° East 288 331 7,500 2,340 Climbing Washington Center
05:26PM 39.1406 -76.3194 80° East 302 348 10,500 2,880 Climbing Washington Center
05:27PM 39.1578 -76.1858 81° East 338 389 13,300 3,060 Climbing Washington Center
05:28PM 39.1753 -76.0306 82° East 374 430 16,700 3,360 Climbing Washington Center
05:29PM 39.1944 -75.8917 80° East 392 451 20,100 2,940 Climbing Washington Center
05:30PM 39.2717 -75.7819 48° Northeast 384 442 22,600 1,440 Climbing Washington Center
05:31PM 39.3550 -75.6694 46° Northeast 397 457 23,000 1,080 Climbing Washington Center
05:32PM 39.4428 -75.5594 44° Northeast 419 482 24,800 1,860 Climbing Washington Center
05:33PM 39.5406 -75.4597 38° Northeast 430 495 26,800 1,680 Climbing Washington Center
05:35PM 39.7433 -75.2903 33° Northeast 478 550 29,800 1,560 Climbing New York Center
05:36PM 39.8519 -75.1783 38° Northeast 483 556 31,400 1,620 Climbing New York Center
05:37PM 39.9194 -75.0392 58° Northeast 489 563 33,000 1,380 Climbing New York Center
05:38PM 40.0111 -74.8686 55° Northeast 508 585 34,300 960 Climbing New York Center
05:39PM 40.0892 -74.7158 56° Northeast 507 583 35,000 300 Climbing New York Center
05:40PM 40.1672 -74.5628 56° Northeast 507 583 35,000  Level New York Center
05:41PM 40.2492 -74.4069 55° Northeast 512 589 35,000  Level New York Center
05:42PM 40.3289 -74.2531 56° Northeast 512 589 35,000  Level New York Center
05:43PM 40.4267 -74.1217 46° Northeast 506 582 35,000  Level New York Center
05:44PM 40.5342 -73.9986 41° Northeast 500 575 35,000  Level New York Center
05:45PM 40.6436 -73.8864 38° Northeast 495 570 35,000  Level New York Center
05:47PM 40.9494 -73.8581 North 473 544 35,000  Level Boston Center
05:48PM 41.0828 -73.8500 North 468 539 35,000  Level Boston Center
05:49PM 41.2119 -73.8472 North 468 539 35,000  Level Boston Center
05:50PM 41.3433 -73.8419 North 476 548 35,000 -300 Level Boston Center
05:51PM 41.4747 -73.8392 North 476 548 34,400 -840 Descending Boston Center
05:52PM 41.6122 -73.8339 North 481 554 33,400 -1,200 Descending Boston Center
05:53PM 41.7458 -73.8258 North 481 554 32,000 -1,680 Descending Boston Center
05:54PM 41.8575 -73.7278 33° Northeast 454 522 30,200 -1,440 Descending Boston Center
05:55PM 41.9550 -73.5819 48° Northeast 476 548 29,200 -1,260 Descending Boston Center
05:56PM 42.0522 -73.4353 48° Northeast 495 570 27,700 -1,320 Descending Boston Center
05:57PM 42.1514 -73.2858 48° Northeast 513 590 26,700 -900 Descending Boston Center
05:58PM 42.2503 -73.1356 48° Northeast 519 597 26,000 -840 Descending Boston Center
05:59PM 42.3492 -72.9794 49° Northeast 527 606 25,100 -1,740 Descending Boston Center
06:00PM 42.4456 -72.8339 48° Northeast 542 624 22,600 -2,100 Descending Boston Center
06:01PM 42.5250 -72.7133 48° Northeast 513 590 21,000 -840 Descending Boston Center
06:02PM 42.6086 -72.5783 50° Northeast 481 554 21,000 -1,320 Level Boston Center
06:03PM 42.6692 -72.4372 60° Northeast 435 501 18,400 -2,640 Descending Boston Center
06:04PM 42.7089 -72.3100 67° East 435 501 15,900 -3,060 Descending Boston Center
06:05PM 42.7647 -72.1092 69° East 446 513 11,800 -2,580 Descending Boston Center
06:06PM 42.8267 -71.9703 59° Northeast 396 456 10,200 -1,440 Descending Boston Center
06:08PM 42.8742 -71.8536 61° Northeast 341 392 8,900 -1,560 Descending Boston Center
06:09PM 42.8403 -71.7719 119° Southeast 259 298 7,100 -1,980 Descending Boston Center
06:10PM 42.7856 -71.7017 137° Southeast 243 280 4,900 -1,980 Descending Boston Center
06:10PM 42.7728 -71.6481 108° East 160 184 3,200 -1,500 Descending Boston Center
06:11PM 42.8142 -71.5911 45° Northeast 159 183 2,000 -600 Descending Boston Center
06:13PM 42.8431 -71.5539 43° Northeast 153 176 2,000 -120 Level Boston Center
06:13PM 42.8739 -71.5164 42° Northeast 141 162 1,800 -420 Descending Boston Center
06:14PM 42.8967 -71.4878 43° Northeast 125 144 1,200 -720 Descending Boston Center
06:16PM 42.9233 -71.4561 41° Northeast 120 138 400 -420 Descending Boston Center
06:17PM 42.9483 -71.4303 37° Northeast 120 138 400 10,200 Level Boston Center
06:18PM 42.9731 -71.4017 40° Northeast 120 138 21,000 10,260 Climbing Boston Center
06:19PM 42.9997 -71.3728 38° Northeast 120 138 21,000  Level Boston Center
06:20PM 42.9328 -71.4358 316° Northwest  Level Estimated
06:27PM 42.9328 -71.4358 316° Northwest  Level Estimated
06:28PM 42.9328 -71.4358 316° Northwest  Level Estimated
06:29PM 42.9328 -71.4358 316° Northwest  Level Estimated
06:30PM 42.9328 -71.4358 316° Northwest  Level Estimated
06:31PM 42.9328 -71.4358 316° Northwest  Level Estimated
06:32PM 42.9328 -71.4358 316° Northwest  Level Estimated
06:33PM 42.9328 -71.4358 316° Northwest  Level Estimated